sensor_id;sensor_type;location;lat;lon;timestamp;P1;durP1;ratioP1;P2;durP2;ratioP2
62654;SDS011;48717;55.556;37.816;2022-12-18T00:01:12;30.63;;;14.35;;
62654;SDS011;48717;55.556;37.816;2022-12-18T00:03:42;25.45;;;10.40;;
62654;SDS011;48717;55.556;37.816;2022-12-18T00:06:13;27.98;;;11.00;;
62654;SDS011;48717;55.556;37.816;2022-12-18T00:08:41;23.85;;;9.93;;
62654;SDS011;48717;55.556;37.816;2022-12-18T00:11:10;23.13;;;10.95;;
62654;SDS011;48717;55.556;37.816;2022-12-18T00:13:39;33.92;;;14.60;;
62654;SDS011;48717;55.556;37.816;2022-12-18T00:16:08;25.77;;;10.15;;
62654;SDS011;48717;55.556;37.816;2022-12-18T00:18:38;15.05;;;7.13;;
62654;SDS011;48717;55.556;37.816;2022-12-18T00:21:07;25.63;;;11.00;;
62654;SDS011;48717;55.556;37.816;2022-12-18T00:23:36;23.50;;;9.65;;
62654;SDS011;48717;55.556;37.816;2022-12-18T00:26:09;12.10;;;7.10;;
62654;SDS011;48717;55.556;37.816;2022-12-18T00:28:42;19.55;;;8.77;;
62654;SDS011;48717;55.556;37.816;2022-12-18T00:31:11;11.32;;;5.65;;
62654;SDS011;48717;55.556;37.816;2022-12-18T00:33:40;24.88;;;11.55;;
62654;SDS011;48717;55.556;37.816;2022-12-18T00:36:10;22.45;;;10.00;;
62654;SDS011;48717;55.556;37.816;2022-12-18T00:38:38;10.15;;;5.70;;
62654;SDS011;48717;55.556;37.816;2022-12-18T00:41:06;21.92;;;9.32;;
62654;SDS011;48717;55.556;37.816;2022-12-18T00:43:36;20.55;;;10.23;;
62654;SDS011;48717;55.556;37.816;2022-12-18T00:46:05;20.95;;;9.38;;
62654;SDS011;48717;55.556;37.816;2022-12-18T00:48:32;23.08;;;10.25;;
62654;SDS011;48717;55.556;37.816;2022-12-18T00:50:59;15.63;;;6.85;;
62654;SDS011;48717;55.556;37.816;2022-12-18T00:53:26;18.88;;;8.95;;
62654;SDS011;48717;55.556;37.816;2022-12-18T00:55:55;22.75;;;11.40;;
62654;SDS011;48717;55.556;37.816;2022-12-18T00:58:22;9.77;;;4.97;;
62654;SDS011;48717;55.556;37.816;2022-12-18T01:00:49;19.38;;;8.75;;
62654;SDS011;48717;55.556;37.816;2022-12-18T01:03:16;13.90;;;6.07;;
62654;SDS011;48717;55.556;37.816;2022-12-18T01:05:43;19.45;;;8.88;;
62654;SDS011;48717;55.556;37.816;2022-12-18T01:08:10;24.88;;;11.20;;
62654;SDS011;48717;55.556;37.816;2022-12-18T01:10:40;22.75;;;11.25;;
62654;SDS011;48717;55.556;37.816;2022-12-18T01:13:08;10.75;;;6.10;;
62654;SDS011;48717;55.556;37.816;2022-12-18T01:15:35;20.65;;;11.00;;
62654;SDS011;48717;55.556;37.816;2022-12-18T01:18:05;20.63;;;9.23;;
62654;SDS011;48717;55.556;37.816;2022-12-18T01:20:33;22.08;;;11.27;;
62654;SDS011;48717;55.556;37.816;2022-12-18T01:23:00;21.45;;;9.55;;
62654;SDS011;48717;55.556;37.816;2022-12-18T01:25:27;21.88;;;10.57;;
62654;SDS011;48717;55.556;37.816;2022-12-18T01:27:54;19.38;;;9.48;;
62654;SDS011;48717;55.556;37.816;2022-12-18T01:30:21;14.63;;;7.82;;
62654;SDS011;48717;55.556;37.816;2022-12-18T01:32:48;21.30;;;9.70;;
62654;SDS011;48717;55.556;37.816;2022-12-18T01:35:16;19.80;;;10.93;;
62654;SDS011;48717;55.556;37.816;2022-12-18T01:37:43;22.02;;;10.73;;
62654;SDS011;48717;55.556;37.816;2022-12-18T01:40:10;11.18;;;6.22;;
62654;SDS011;48717;55.556;37.816;2022-12-18T01:42:38;21.45;;;12.38;;
62654;SDS011;48717;55.556;37.816;2022-12-18T01:45:06;19.30;;;9.60;;
62654;SDS011;48717;55.556;37.816;2022-12-18T01:55:10;16.30;;;8.05;;
62654;SDS011;48717;55.556;37.816;2022-12-18T01:57:39;19.15;;;9.18;;
62654;SDS011;48717;55.556;37.816;2022-12-18T02:00:08;19.20;;;9.32;;
62654;SDS011;48717;55.556;37.816;2022-12-18T02:02:39;21.15;;;9.80;;
62654;SDS011;48717;55.556;37.816;2022-12-18T02:05:08;24.87;;;10.23;;
62654;SDS011;48717;55.556;37.816;2022-12-18T02:07:40;8.80;;;4.38;;
62654;SDS011;48717;55.556;37.816;2022-12-18T02:15:17;13.75;;;6.65;;
62654;SDS011;48717;55.556;37.816;2022-12-18T02:18:05;16.45;;;7.80;;
62654;SDS011;48717;55.556;37.816;2022-12-18T02:20:59;9.68;;;5.00;;
62654;SDS011;48717;55.556;37.816;2022-12-18T02:23:47;18.33;;;8.48;;
62654;SDS011;48717;55.556;37.816;2022-12-18T02:26:34;10.90;;;5.38;;
62654;SDS011;48717;55.556;37.816;2022-12-18T02:29:07;10.80;;;5.20;;
62654;SDS011;48717;55.556;37.816;2022-12-18T02:31:45;16.15;;;8.32;;
62654;SDS011;48717;55.556;37.816;2022-12-18T02:34:26;15.85;;;7.45;;
62654;SDS011;48717;55.556;37.816;2022-12-18T02:36:57;14.05;;;7.03;;
62654;SDS011;48717;55.556;37.816;2022-12-18T02:39:28;15.05;;;7.60;;
62654;SDS011;48717;55.556;37.816;2022-12-18T02:42:01;17.85;;;8.18;;
62654;SDS011;48717;55.556;37.816;2022-12-18T02:44:34;16.35;;;7.82;;
62654;SDS011;48717;55.556;37.816;2022-12-18T02:47:08;14.57;;;8.20;;
62654;SDS011;48717;55.556;37.816;2022-12-18T02:50:03;13.00;;;6.88;;
62654;SDS011;48717;55.556;37.816;2022-12-18T03:01:03;17.95;;;10.15;;
62654;SDS011;48717;55.556;37.816;2022-12-18T03:03:52;16.58;;;7.63;;
62654;SDS011;48717;55.556;37.816;2022-12-18T03:06:26;16.67;;;8.57;;
62654;SDS011;48717;55.556;37.816;2022-12-18T03:09:11;16.55;;;8.38;;
62654;SDS011;48717;55.556;37.816;2022-12-18T03:11:45;18.48;;;8.25;;
62654;SDS011;48717;55.556;37.816;2022-12-18T03:14:40;14.38;;;6.88;;
62654;SDS011;48717;55.556;37.816;2022-12-18T03:17:10;14.10;;;6.50;;
62654;SDS011;48717;55.556;37.816;2022-12-18T03:19:40;12.40;;;6.32;;
62654;SDS011;48717;55.556;37.816;2022-12-18T03:22:09;17.70;;;9.52;;
62654;SDS011;48717;55.556;37.816;2022-12-18T03:24:45;11.20;;;5.63;;
62654;SDS011;48717;55.556;37.816;2022-12-18T03:27:14;11.75;;;5.13;;
62654;SDS011;48717;55.556;37.816;2022-12-18T03:29:47;17.60;;;7.97;;
62654;SDS011;48717;55.556;37.816;2022-12-18T03:32:26;15.27;;;7.13;;
62654;SDS011;48717;55.556;37.816;2022-12-18T03:34:59;15.98;;;7.72;;
62654;SDS011;48717;55.556;37.816;2022-12-18T03:37:32;14.30;;;6.65;;
62654;SDS011;48717;55.556;37.816;2022-12-18T03:40:00;17.27;;;8.40;;
62654;SDS011;48717;55.556;37.816;2022-12-18T03:42:32;15.68;;;8.20;;
62654;SDS011;48717;55.556;37.816;2022-12-18T03:48:19;14.30;;;7.10;;
62654;SDS011;48717;55.556;37.816;2022-12-18T03:51:00;18.40;;;7.45;;
62654;SDS011;48717;55.556;37.816;2022-12-18T03:56:13;16.20;;;7.47;;
62654;SDS011;48717;55.556;37.816;2022-12-18T03:58:43;9.93;;;4.68;;
62654;SDS011;48717;55.556;37.816;2022-12-18T04:01:20;13.60;;;6.93;;
62654;SDS011;48717;55.556;37.816;2022-12-18T04:03:51;16.67;;;8.00;;
62654;SDS011;48717;55.556;37.816;2022-12-18T04:06:21;15.43;;;7.75;;
62654;SDS011;48717;55.556;37.816;2022-12-18T04:08:50;12.30;;;6.57;;
62654;SDS011;48717;55.556;37.816;2022-12-18T04:11:21;14.40;;;6.88;;
62654;SDS011;48717;55.556;37.816;2022-12-18T04:13:48;15.20;;;8.88;;
62654;SDS011;48717;55.556;37.816;2022-12-18T04:16:21;13.35;;;7.40;;
62654;SDS011;48717;55.556;37.816;2022-12-18T04:18:52;15.07;;;7.28;;
62654;SDS011;48717;55.556;37.816;2022-12-18T04:21:20;16.75;;;8.18;;
62654;SDS011;48717;55.556;37.816;2022-12-18T04:23:48;14.32;;;7.68;;
62654;SDS011;48717;55.556;37.816;2022-12-18T04:26:18;10.68;;;5.93;;
62654;SDS011;48717;55.556;37.816;2022-12-18T04:28:56;14.60;;;8.07;;
62654;SDS011;48717;55.556;37.816;2022-12-18T04:31:23;12.35;;;6.93;;
62654;SDS011;48717;55.556;37.816;2022-12-18T04:33:51;11.95;;;5.63;;
62654;SDS011;48717;55.556;37.816;2022-12-18T04:36:18;14.05;;;6.43;;
62654;SDS011;48717;55.556;37.816;2022-12-18T04:38:46;13.40;;;6.18;;
62654;SDS011;48717;55.556;37.816;2022-12-18T04:41:15;12.93;;;8.18;;
62654;SDS011;48717;55.556;37.816;2022-12-18T04:43:45;13.65;;;6.47;;
62654;SDS011;48717;55.556;37.816;2022-12-18T04:46:12;13.98;;;6.95;;
62654;SDS011;48717;55.556;37.816;2022-12-18T04:48:40;15.52;;;8.10;;
62654;SDS011;48717;55.556;37.816;2022-12-18T04:51:07;11.07;;;6.10;;
62654;SDS011;48717;55.556;37.816;2022-12-18T04:53:34;13.60;;;6.88;;
62654;SDS011;48717;55.556;37.816;2022-12-18T04:56:02;11.90;;;6.72;;
62654;SDS011;48717;55.556;37.816;2022-12-18T04:58:34;14.77;;;6.82;;
62654;SDS011;48717;55.556;37.816;2022-12-18T05:01:03;14.20;;;7.53;;
62654;SDS011;48717;55.556;37.816;2022-12-18T05:03:31;14.27;;;7.22;;
62654;SDS011;48717;55.556;37.816;2022-12-18T05:05:58;10.10;;;4.00;;
62654;SDS011;48717;55.556;37.816;2022-12-18T05:08:26;11.77;;;5.82;;
62654;SDS011;48717;55.556;37.816;2022-12-18T05:11:03;11.18;;;5.60;;
62654;SDS011;48717;55.556;37.816;2022-12-18T05:13:36;8.82;;;5.43;;
62654;SDS011;48717;55.556;37.816;2022-12-18T05:16:05;13.65;;;8.48;;
62654;SDS011;48717;55.556;37.816;2022-12-18T05:18:33;10.35;;;5.72;;
62654;SDS011;48717;55.556;37.816;2022-12-18T05:21:01;13.00;;;7.35;;
62654;SDS011;48717;55.556;37.816;2022-12-18T05:23:28;12.88;;;6.63;;
62654;SDS011;48717;55.556;37.816;2022-12-18T05:25:59;14.82;;;8.10;;
62654;SDS011;48717;55.556;37.816;2022-12-18T05:28:28;10.85;;;5.03;;
62654;SDS011;48717;55.556;37.816;2022-12-18T05:30:58;8.88;;;4.45;;
62654;SDS011;48717;55.556;37.816;2022-12-18T05:33:28;11.45;;;6.60;;
62654;SDS011;48717;55.556;37.816;2022-12-18T05:35:59;12.15;;;6.10;;
62654;SDS011;48717;55.556;37.816;2022-12-18T05:38:31;11.77;;;6.50;;
62654;SDS011;48717;55.556;37.816;2022-12-18T05:41:00;15.40;;;8.43;;
62654;SDS011;48717;55.556;37.816;2022-12-18T05:43:27;13.63;;;5.78;;
62654;SDS011;48717;55.556;37.816;2022-12-18T05:45:55;14.20;;;7.47;;
62654;SDS011;48717;55.556;37.816;2022-12-18T05:48:23;10.45;;;5.78;;
62654;SDS011;48717;55.556;37.816;2022-12-18T05:50:50;12.15;;;6.97;;
62654;SDS011;48717;55.556;37.816;2022-12-18T05:53:18;13.90;;;7.78;;
62654;SDS011;48717;55.556;37.816;2022-12-18T05:55:46;34.38;;;8.40;;
62654;SDS011;48717;55.556;37.816;2022-12-18T05:58:14;14.40;;;7.32;;
62654;SDS011;48717;55.556;37.816;2022-12-18T06:00:45;13.70;;;8.65;;
62654;SDS011;48717;55.556;37.816;2022-12-18T06:03:13;9.55;;;4.63;;
62654;SDS011;48717;55.556;37.816;2022-12-18T06:05:41;18.58;;;11.05;;
62654;SDS011;48717;55.556;37.816;2022-12-18T06:08:10;14.88;;;8.45;;
62654;SDS011;48717;55.556;37.816;2022-12-18T06:10:38;16.27;;;9.10;;
62654;SDS011;48717;55.556;37.816;2022-12-18T06:13:05;14.02;;;7.95;;
62654;SDS011;48717;55.556;37.816;2022-12-18T06:15:35;9.73;;;4.85;;
62654;SDS011;48717;55.556;37.816;2022-12-18T06:18:03;13.07;;;6.63;;
62654;SDS011;48717;55.556;37.816;2022-12-18T06:20:30;15.52;;;8.00;;
62654;SDS011;48717;55.556;37.816;2022-12-18T06:22:59;12.80;;;8.57;;
62654;SDS011;48717;55.556;37.816;2022-12-18T06:25:26;11.15;;;7.18;;
62654;SDS011;48717;55.556;37.816;2022-12-18T06:27:54;13.77;;;7.43;;
62654;SDS011;48717;55.556;37.816;2022-12-18T06:30:21;14.18;;;7.13;;
62654;SDS011;48717;55.556;37.816;2022-12-18T06:32:49;10.50;;;3.85;;
62654;SDS011;48717;55.556;37.816;2022-12-18T06:35:22;14.40;;;7.13;;
62654;SDS011;48717;55.556;37.816;2022-12-18T06:37:49;11.30;;;5.65;;
62654;SDS011;48717;55.556;37.816;2022-12-18T06:40:17;17.20;;;7.43;;
62654;SDS011;48717;55.556;37.816;2022-12-18T06:42:45;14.13;;;9.10;;
62654;SDS011;48717;55.556;37.816;2022-12-18T06:45:12;6.07;;;3.75;;
62654;SDS011;48717;55.556;37.816;2022-12-18T06:47:39;11.23;;;5.75;;
62654;SDS011;48717;55.556;37.816;2022-12-18T06:50:06;12.88;;;5.88;;
62654;SDS011;48717;55.556;37.816;2022-12-18T06:52:33;12.45;;;5.90;;
62654;SDS011;48717;55.556;37.816;2022-12-18T06:55:00;12.32;;;5.82;;
62654;SDS011;48717;55.556;37.816;2022-12-18T06:57:28;13.60;;;6.13;;
62654;SDS011;48717;55.556;37.816;2022-12-18T06:59:55;9.30;;;4.60;;
62654;SDS011;48717;55.556;37.816;2022-12-18T07:02:22;17.38;;;7.60;;
62654;SDS011;48717;55.556;37.816;2022-12-18T07:04:49;11.38;;;5.97;;
62654;SDS011;48717;55.556;37.816;2022-12-18T07:07:16;14.10;;;6.25;;
62654;SDS011;48717;55.556;37.816;2022-12-18T07:09:44;13.57;;;7.25;;
62654;SDS011;48717;55.556;37.816;2022-12-18T07:12:11;13.02;;;7.38;;
62654;SDS011;48717;55.556;37.816;2022-12-18T07:14:38;13.02;;;6.97;;
62654;SDS011;48717;55.556;37.816;2022-12-18T07:17:05;9.88;;;4.03;;
62654;SDS011;48717;55.556;37.816;2022-12-18T07:19:32;15.50;;;6.22;;
62654;SDS011;48717;55.556;37.816;2022-12-18T07:21:59;13.25;;;5.07;;
62654;SDS011;48717;55.556;37.816;2022-12-18T07:24:27;14.65;;;6.32;;
62654;SDS011;48717;55.556;37.816;2022-12-18T07:26:54;13.48;;;7.38;;
62654;SDS011;48717;55.556;37.816;2022-12-18T07:29:21;14.23;;;6.00;;
62654;SDS011;48717;55.556;37.816;2022-12-18T07:31:48;25.95;;;8.88;;
62654;SDS011;48717;55.556;37.816;2022-12-18T07:34:16;9.10;;;4.63;;
62654;SDS011;48717;55.556;37.816;2022-12-18T07:36:43;13.52;;;6.50;;
62654;SDS011;48717;55.556;37.816;2022-12-18T07:39:11;11.80;;;5.22;;
62654;SDS011;48717;55.556;37.816;2022-12-18T07:41:38;12.60;;;5.97;;
62654;SDS011;48717;55.556;37.816;2022-12-18T07:44:14;10.60;;;5.20;;
62654;SDS011;48717;55.556;37.816;2022-12-18T07:46:41;14.65;;;6.57;;
62654;SDS011;48717;55.556;37.816;2022-12-18T07:49:08;12.07;;;5.53;;
62654;SDS011;48717;55.556;37.816;2022-12-18T07:51:35;11.20;;;5.72;;
62654;SDS011;48717;55.556;37.816;2022-12-18T07:54:02;13.48;;;6.15;;
62654;SDS011;48717;55.556;37.816;2022-12-18T07:56:30;8.88;;;4.72;;
62654;SDS011;48717;55.556;37.816;2022-12-18T07:58:57;12.23;;;6.70;;
62654;SDS011;48717;55.556;37.816;2022-12-18T08:01:28;12.55;;;5.47;;
62654;SDS011;48717;55.556;37.816;2022-12-18T08:03:56;10.65;;;5.45;;
62654;SDS011;48717;55.556;37.816;2022-12-18T08:06:24;14.15;;;6.88;;
62654;SDS011;48717;55.556;37.816;2022-12-18T08:08:52;12.80;;;6.20;;
62654;SDS011;48717;55.556;37.816;2022-12-18T08:11:20;17.35;;;6.30;;
62654;SDS011;48717;55.556;37.816;2022-12-18T08:13:48;12.25;;;5.68;;
62654;SDS011;48717;55.556;37.816;2022-12-18T08:16:15;13.23;;;5.53;;
62654;SDS011;48717;55.556;37.816;2022-12-18T08:18:43;12.45;;;5.78;;
62654;SDS011;48717;55.556;37.816;2022-12-18T08:21:11;5.18;;;3.05;;
62654;SDS011;48717;55.556;37.816;2022-12-18T08:23:41;12.38;;;6.13;;
62654;SDS011;48717;55.556;37.816;2022-12-18T08:26:09;12.35;;;5.80;;
62654;SDS011;48717;55.556;37.816;2022-12-18T08:28:37;11.43;;;5.25;;
62654;SDS011;48717;55.556;37.816;2022-12-18T08:31:05;12.70;;;6.45;;
62654;SDS011;48717;55.556;37.816;2022-12-18T08:33:33;12.93;;;6.55;;
62654;SDS011;48717;55.556;37.816;2022-12-18T08:36:01;13.13;;;5.85;;
62654;SDS011;48717;55.556;37.816;2022-12-18T08:38:29;11.27;;;5.43;;
62654;SDS011;48717;55.556;37.816;2022-12-18T08:40:59;10.00;;;4.38;;
62654;SDS011;48717;55.556;37.816;2022-12-18T08:43:30;14.32;;;5.70;;
62654;SDS011;48717;55.556;37.816;2022-12-18T08:46:16;11.57;;;5.38;;
62654;SDS011;48717;55.556;37.816;2022-12-18T08:48:44;8.38;;;4.80;;
62654;SDS011;48717;55.556;37.816;2022-12-18T08:51:12;14.48;;;6.00;;
62654;SDS011;48717;55.556;37.816;2022-12-18T08:53:39;11.02;;;5.32;;
62654;SDS011;48717;55.556;37.816;2022-12-18T08:56:07;17.30;;;6.18;;
62654;SDS011;48717;55.556;37.816;2022-12-18T08:58:34;12.30;;;5.38;;
62654;SDS011;48717;55.556;37.816;2022-12-18T09:01:02;9.70;;;5.05;;
62654;SDS011;48717;55.556;37.816;2022-12-18T09:03:30;12.52;;;6.53;;
62654;SDS011;48717;55.556;37.816;2022-12-18T09:05:58;14.88;;;5.82;;
62654;SDS011;48717;55.556;37.816;2022-12-18T09:08:26;11.88;;;6.38;;
62654;SDS011;48717;55.556;37.816;2022-12-18T09:10:53;5.25;;;2.35;;
62654;SDS011;48717;55.556;37.816;2022-12-18T09:13:21;14.23;;;5.43;;
62654;SDS011;48717;55.556;37.816;2022-12-18T09:15:50;6.97;;;3.95;;
62654;SDS011;48717;55.556;37.816;2022-12-18T09:18:19;9.02;;;4.35;;
62654;SDS011;48717;55.556;37.816;2022-12-18T09:20:47;11.65;;;5.13;;
62654;SDS011;48717;55.556;37.816;2022-12-18T09:23:14;11.73;;;6.38;;
62654;SDS011;48717;55.556;37.816;2022-12-18T09:25:41;8.20;;;4.38;;
62654;SDS011;48717;55.556;37.816;2022-12-18T09:28:12;11.35;;;4.68;;
62654;SDS011;48717;55.556;37.816;2022-12-18T09:30:42;10.50;;;5.35;;
62654;SDS011;48717;55.556;37.816;2022-12-18T09:33:12;11.90;;;5.63;;
62654;SDS011;48717;55.556;37.816;2022-12-18T09:35:40;9.65;;;4.75;;
62654;SDS011;48717;55.556;37.816;2022-12-18T09:38:13;11.57;;;4.90;;
62654;SDS011;48717;55.556;37.816;2022-12-18T09:40:46;10.32;;;4.75;;
62654;SDS011;48717;55.556;37.816;2022-12-18T09:43:30;11.38;;;5.15;;
62654;SDS011;48717;55.556;37.816;2022-12-18T09:46:09;9.00;;;4.72;;
62654;SDS011;48717;55.556;37.816;2022-12-18T09:48:44;9.48;;;4.72;;
62654;SDS011;48717;55.556;37.816;2022-12-18T09:53:41;8.82;;;4.03;;
62654;SDS011;48717;55.556;37.816;2022-12-18T09:56:16;11.95;;;4.97;;
62654;SDS011;48717;55.556;37.816;2022-12-18T09:58:55;9.75;;;4.40;;
62654;SDS011;48717;55.556;37.816;2022-12-18T10:01:26;11.18;;;5.78;;
62654;SDS011;48717;55.556;37.816;2022-12-18T10:04:08;12.15;;;5.50;;
62654;SDS011;48717;55.556;37.816;2022-12-18T10:06:39;12.23;;;4.75;;
62654;SDS011;48717;55.556;37.816;2022-12-18T10:14:26;8.77;;;4.05;;
62654;SDS011;48717;55.556;37.816;2022-12-18T10:19:47;10.68;;;4.10;;
62654;SDS011;48717;55.556;37.816;2022-12-18T10:27:51;10.10;;;5.60;;
62654;SDS011;48717;55.556;37.816;2022-12-18T10:30:22;8.95;;;4.60;;
62654;SDS011;48717;55.556;37.816;2022-12-18T10:32:50;7.55;;;4.18;;
62654;SDS011;48717;55.556;37.816;2022-12-18T10:35:19;9.65;;;4.68;;
62654;SDS011;48717;55.556;37.816;2022-12-18T10:38:07;10.75;;;4.95;;
62654;SDS011;48717;55.556;37.816;2022-12-18T10:48:28;5.00;;;2.60;;
62654;SDS011;48717;55.556;37.816;2022-12-18T10:50:57;8.23;;;3.80;;
62654;SDS011;48717;55.556;37.816;2022-12-18T10:53:39;8.38;;;4.32;;
62654;SDS011;48717;55.556;37.816;2022-12-18T10:56:08;7.75;;;3.80;;
62654;SDS011;48717;55.556;37.816;2022-12-18T10:58:37;8.02;;;4.47;;
62654;SDS011;48717;55.556;37.816;2022-12-18T11:01:10;10.85;;;4.63;;
62654;SDS011;48717;55.556;37.816;2022-12-18T11:03:46;8.75;;;4.05;;
62654;SDS011;48717;55.556;37.816;2022-12-18T11:06:28;6.30;;;2.90;;
62654;SDS011;48717;55.556;37.816;2022-12-18T11:11:38;8.38;;;4.05;;
62654;SDS011;48717;55.556;37.816;2022-12-18T11:14:06;8.50;;;4.05;;
62654;SDS011;48717;55.556;37.816;2022-12-18T11:16:46;7.40;;;3.38;;
62654;SDS011;48717;55.556;37.816;2022-12-18T11:19:35;11.27;;;4.90;;
62654;SDS011;48717;55.556;37.816;2022-12-18T11:22:20;10.97;;;4.37;;
62654;SDS011;48717;55.556;37.816;2022-12-18T11:25:03;14.23;;;4.88;;
62654;SDS011;48717;55.556;37.816;2022-12-18T11:27:58;10.43;;;4.43;;
62654;SDS011;48717;55.556;37.816;2022-12-18T11:30:28;12.35;;;4.55;;
62654;SDS011;48717;55.556;37.816;2022-12-18T11:33:10;10.43;;;4.85;;
62654;SDS011;48717;55.556;37.816;2022-12-18T11:38:32;7.85;;;4.10;;
62654;SDS011;48717;55.556;37.816;2022-12-18T11:43:47;8.90;;;4.60;;
62654;SDS011;48717;55.556;37.816;2022-12-18T11:54:27;4.30;;;2.30;;
62654;SDS011;48717;55.556;37.816;2022-12-18T11:56:58;8.50;;;3.80;;
62654;SDS011;48717;55.556;37.816;2022-12-18T11:59:55;9.52;;;4.70;;
62654;SDS011;48717;55.556;37.816;2022-12-18T12:16:46;5.95;;;3.30;;
62654;SDS011;48717;55.556;37.816;2022-12-18T12:22:18;7.30;;;3.75;;
62654;SDS011;48717;55.556;37.816;2022-12-18T12:40:44;12.10;;;4.75;;
62654;SDS011;48717;55.556;37.816;2022-12-18T12:43:24;9.35;;;4.53;;
62654;SDS011;48717;55.556;37.816;2022-12-18T12:45:55;11.07;;;4.97;;
62654;SDS011;48717;55.556;37.816;2022-12-18T12:53:45;7.43;;;3.63;;
62654;SDS011;48717;55.556;37.816;2022-12-18T12:56:19;8.70;;;4.00;;
62654;SDS011;48717;55.556;37.816;2022-12-18T13:03:58;11.93;;;5.32;;
62654;SDS011;48717;55.556;37.816;2022-12-18T13:09:32;9.20;;;4.72;;
62654;SDS011;48717;55.556;37.816;2022-12-18T13:12:04;9.05;;;4.10;;
62654;SDS011;48717;55.556;37.816;2022-12-18T13:15:13;11.15;;;4.55;;
62654;SDS011;48717;55.556;37.816;2022-12-18T13:23:27;10.38;;;4.20;;
62654;SDS011;48717;55.556;37.816;2022-12-18T13:36:54;9.05;;;3.55;;
62654;SDS011;48717;55.556;37.816;2022-12-18T13:39:23;8.95;;;3.88;;
62654;SDS011;48717;55.556;37.816;2022-12-18T13:47:25;8.27;;;3.67;;
62654;SDS011;48717;55.556;37.816;2022-12-18T13:49:57;6.20;;;3.55;;
62654;SDS011;48717;55.556;37.816;2022-12-18T13:52:26;12.73;;;4.03;;
62654;SDS011;48717;55.556;37.816;2022-12-18T13:54:56;7.60;;;3.65;;
62654;SDS011;48717;55.556;37.816;2022-12-18T13:57:28;6.68;;;3.55;;
62654;SDS011;48717;55.556;37.816;2022-12-18T13:59:55;8.83;;;4.10;;
62654;SDS011;48717;55.556;37.816;2022-12-18T14:02:24;8.65;;;4.45;;
62654;SDS011;48717;55.556;37.816;2022-12-18T14:04:54;8.25;;;3.72;;
62654;SDS011;48717;55.556;37.816;2022-12-18T14:07:23;8.95;;;4.75;;
62654;SDS011;48717;55.556;37.816;2022-12-18T14:09:59;9.65;;;4.68;;
62654;SDS011;48717;55.556;37.816;2022-12-18T14:12:48;10.50;;;4.57;;
62654;SDS011;48717;55.556;37.816;2022-12-18T14:15:32;8.80;;;4.55;;
62654;SDS011;48717;55.556;37.816;2022-12-18T14:20:54;12.25;;;5.40;;
62654;SDS011;48717;55.556;37.816;2022-12-18T14:25:57;15.63;;;5.88;;
62654;SDS011;48717;55.556;37.816;2022-12-18T14:28:31;12.00;;;5.07;;
62654;SDS011;48717;55.556;37.816;2022-12-18T14:30:58;31.75;;;8.10;;
62654;SDS011;48717;55.556;37.816;2022-12-18T14:33:26;20.63;;;7.00;;
62654;SDS011;48717;55.556;37.816;2022-12-18T14:36:01;26.70;;;9.02;;
62654;SDS011;48717;55.556;37.816;2022-12-18T14:38:31;24.75;;;7.63;;
62654;SDS011;48717;55.556;37.816;2022-12-18T14:41:17;25.10;;;8.68;;
62654;SDS011;48717;55.556;37.816;2022-12-18T14:43:46;21.30;;;9.52;;
62654;SDS011;48717;55.556;37.816;2022-12-18T14:51:57;15.48;;;6.63;;
62654;SDS011;48717;55.556;37.816;2022-12-18T14:54:30;14.13;;;6.53;;
62654;SDS011;48717;55.556;37.816;2022-12-18T14:57:00;27.52;;;9.82;;
62654;SDS011;48717;55.556;37.816;2022-12-18T14:59:29;19.85;;;7.72;;
62654;SDS011;48717;55.556;37.816;2022-12-18T15:04:38;19.33;;;8.23;;
62654;SDS011;48717;55.556;37.816;2022-12-18T15:07:20;20.90;;;8.80;;
62654;SDS011;48717;55.556;37.816;2022-12-18T15:12:35;20.25;;;7.45;;
62654;SDS011;48717;55.556;37.816;2022-12-18T15:15:05;14.63;;;6.47;;
62654;SDS011;48717;55.556;37.816;2022-12-18T15:23:52;16.70;;;7.57;;
62654;SDS011;48717;55.556;37.816;2022-12-18T15:26:04;17.90;;;7.75;;
62654;SDS011;48717;55.556;37.816;2022-12-18T15:28:40;14.02;;;5.63;;
62654;SDS011;48717;55.556;37.816;2022-12-18T15:33:42;16.75;;;6.65;;
62654;SDS011;48717;55.556;37.816;2022-12-18T15:36:20;15.48;;;5.57;;
62654;SDS011;48717;55.556;37.816;2022-12-18T15:38:55;21.38;;;6.90;;
62654;SDS011;48717;55.556;37.816;2022-12-18T15:41:31;13.63;;;6.18;;
62654;SDS011;48717;55.556;37.816;2022-12-18T15:44:02;11.63;;;5.40;;
62654;SDS011;48717;55.556;37.816;2022-12-18T15:46:30;13.40;;;5.53;;
62654;SDS011;48717;55.556;37.816;2022-12-18T15:48:58;11.32;;;4.80;;
62654;SDS011;48717;55.556;37.816;2022-12-18T15:51:34;11.85;;;5.88;;
62654;SDS011;48717;55.556;37.816;2022-12-18T15:54:04;10.70;;;4.35;;
62654;SDS011;48717;55.556;37.816;2022-12-18T15:56:36;14.77;;;6.30;;
62654;SDS011;48717;55.556;37.816;2022-12-18T15:59:23;10.00;;;4.55;;
62654;SDS011;48717;55.556;37.816;2022-12-18T16:01:50;13.80;;;6.68;;
62654;SDS011;48717;55.556;37.816;2022-12-18T16:04:20;11.68;;;5.30;;
62654;SDS011;48717;55.556;37.816;2022-12-18T16:06:48;11.48;;;5.13;;
62654;SDS011;48717;55.556;37.816;2022-12-18T16:09:36;13.55;;;5.72;;
62654;SDS011;48717;55.556;37.816;2022-12-18T16:12:03;9.05;;;3.97;;
62654;SDS011;48717;55.556;37.816;2022-12-18T16:14:32;15.55;;;6.97;;
62654;SDS011;48717;55.556;37.816;2022-12-18T16:17:03;11.20;;;5.18;;
62654;SDS011;48717;55.556;37.816;2022-12-18T16:19:35;10.60;;;4.88;;
62654;SDS011;48717;55.556;37.816;2022-12-18T16:22:02;11.63;;;5.63;;
62654;SDS011;48717;55.556;37.816;2022-12-18T16:24:30;9.90;;;4.78;;
62654;SDS011;48717;55.556;37.816;2022-12-18T16:26:59;11.43;;;5.18;;
62654;SDS011;48717;55.556;37.816;2022-12-18T16:29:27;10.98;;;6.38;;
62654;SDS011;48717;55.556;37.816;2022-12-18T16:31:58;12.43;;;5.75;;
62654;SDS011;48717;55.556;37.816;2022-12-18T16:34:28;9.68;;;4.35;;
62654;SDS011;48717;55.556;37.816;2022-12-18T16:37:04;10.90;;;5.45;;
62654;SDS011;48717;55.556;37.816;2022-12-18T16:39:32;9.18;;;5.28;;
62654;SDS011;48717;55.556;37.816;2022-12-18T16:42:05;9.68;;;5.43;;
62654;SDS011;48717;55.556;37.816;2022-12-18T16:44:39;11.48;;;5.57;;
62654;SDS011;48717;55.556;37.816;2022-12-18T16:47:07;9.18;;;4.90;;
62654;SDS011;48717;55.556;37.816;2022-12-18T16:49:35;11.80;;;5.57;;
62654;SDS011;48717;55.556;37.816;2022-12-18T16:52:07;11.18;;;5.43;;
62654;SDS011;48717;55.556;37.816;2022-12-18T16:54:35;13.38;;;5.80;;
62654;SDS011;48717;55.556;37.816;2022-12-18T16:57:03;11.23;;;5.05;;
62654;SDS011;48717;55.556;37.816;2022-12-18T16:59:34;12.15;;;5.07;;
62654;SDS011;48717;55.556;37.816;2022-12-18T17:02:01;15.90;;;6.50;;
62654;SDS011;48717;55.556;37.816;2022-12-18T17:04:28;13.43;;;6.28;;
62654;SDS011;48717;55.556;37.816;2022-12-18T17:06:56;14.88;;;5.90;;
62654;SDS011;48717;55.556;37.816;2022-12-18T17:09:23;6.93;;;3.72;;
62654;SDS011;48717;55.556;37.816;2022-12-18T17:11:53;12.82;;;5.88;;
62654;SDS011;48717;55.556;37.816;2022-12-18T17:14:22;11.98;;;5.75;;
62654;SDS011;48717;55.556;37.816;2022-12-18T17:16:50;8.18;;;4.20;;
62654;SDS011;48717;55.556;37.816;2022-12-18T17:19:38;13.20;;;6.18;;
62654;SDS011;48717;55.556;37.816;2022-12-18T17:22:06;14.23;;;6.07;;
62654;SDS011;48717;55.556;37.816;2022-12-18T17:24:34;10.15;;;4.93;;
62654;SDS011;48717;55.556;37.816;2022-12-18T17:27:02;11.65;;;5.32;;